Terminal Aerodrome Forecast
Issued by NWS St Louis, MO

Home | Current Version | Previous Version | Text Only | Print | Product List | Glossary On
Versions: 1 2 3 4 5 6 7 8 9 10 11 12 13 14 15 16 17 18 19 20 21
207
FTUS43 KLSX 291730
TAFCOU
TAF
KCOU 291730Z 2918/3018 08015G23KT 3SM TSRA OVC008CB
      TEMPO 2918/2922 1 1/2SM TSRA BR
     FM300000 07011G24KT 3SM SHRA VCTS OVC010CB
     FM301200 15010KT 3SM SHRA OVC008
     FM301600 16010G16KT 3SM SHRA VCTS OVC020CB=

USA.gov is the U.S. government's official web portal to all federal, state and local government web resources and services.